Chandler, Minnesota
Current Conditions -  °F | °C
As of 4:13 PM on Sunday 25 Jan 2015 (Local Time) from KDVP Reporting Station
Haze Haze  
Wind Chill: 28°   Ceiling: 300
Heat Index: 28°   Visibility: 4mi
Dew Point: 28°   Wind: 0mph
Humidity: 99%   Direction: NA
Pressure: 30.02"   Gusts: NA
Location:  43.93°N, 95.95°W
Report Text: KDVP 252213Z AUTO 00000KT 4SM BR OVC003 M02/M02 A3002 RMK AO2 T10221024
Loading
Personal Weather Stations






























Interactive Weather Map New forecast layout! Learn more

10-Day Weather Forecast

Advertisements
Track Severe Weather on mobile